sensor_id;sensor_type;location;lat;lon;timestamp;P1;durP1;ratioP1;P2;durP2;ratioP2
50821;SDS011;36794;51.212;6.980;2023-09-12T00:02:07;4.93;;;2.42;;
50821;SDS011;36794;51.212;6.980;2023-09-12T00:04:34;3.80;;;2.42;;
50821;SDS011;36794;51.212;6.980;2023-09-12T00:07:00;5.75;;;2.80;;
50821;SDS011;36794;51.212;6.980;2023-09-12T00:09:27;5.30;;;2.80;;
50821;SDS011;36794;51.212;6.980;2023-09-12T00:11:53;5.43;;;2.90;;
50821;SDS011;36794;51.212;6.980;2023-09-12T00:14:19;6.22;;;3.15;;
50821;SDS011;36794;51.212;6.980;2023-09-12T00:16:45;4.35;;;2.65;;
50821;SDS011;36794;51.212;6.980;2023-09-12T00:19:12;7.68;;;3.10;;
50821;SDS011;36794;51.212;6.980;2023-09-12T00:21:38;4.75;;;2.90;;
50821;SDS011;36794;51.212;6.980;2023-09-12T00:24:04;5.13;;;2.78;;
50821;SDS011;36794;51.212;6.980;2023-09-12T00:26:30;7.20;;;2.90;;
50821;SDS011;36794;51.212;6.980;2023-09-12T00:28:56;5.32;;;3.08;;
50821;SDS011;36794;51.212;6.980;2023-09-12T00:31:22;4.43;;;2.78;;
50821;SDS011;36794;51.212;6.980;2023-09-12T00:33:48;6.20;;;2.45;;
50821;SDS011;36794;51.212;6.980;2023-09-12T00:36:14;5.20;;;2.75;;
50821;SDS011;36794;51.212;6.980;2023-09-12T00:38:40;7.82;;;2.97;;
50821;SDS011;36794;51.212;6.980;2023-09-12T00:41:06;6.72;;;3.15;;
50821;SDS011;36794;51.212;6.980;2023-09-12T00:43:32;8.05;;;3.45;;
50821;SDS011;36794;51.212;6.980;2023-09-12T00:45:58;8.10;;;3.30;;
50821;SDS011;36794;51.212;6.980;2023-09-12T00:48:24;4.72;;;3.17;;
50821;SDS011;36794;51.212;6.980;2023-09-12T00:50:50;4.45;;;3.00;;
50821;SDS011;36794;51.212;6.980;2023-09-12T00:53:16;4.95;;;3.05;;
50821;SDS011;36794;51.212;6.980;2023-09-12T00:55:45;7.20;;;4.03;;
50821;SDS011;36794;51.212;6.980;2023-09-12T00:58:12;7.68;;;4.47;;
50821;SDS011;36794;51.212;6.980;2023-09-12T01:00:40;4.97;;;3.35;;
50821;SDS011;36794;51.212;6.980;2023-09-12T01:03:06;4.47;;;3.42;;
50821;SDS011;36794;51.212;6.980;2023-09-12T01:05:32;5.95;;;3.28;;
50821;SDS011;36794;51.212;6.980;2023-09-12T01:07:59;4.45;;;3.08;;
50821;SDS011;36794;51.212;6.980;2023-09-12T01:10:26;7.05;;;3.40;;
50821;SDS011;36794;51.212;6.980;2023-09-12T01:12:52;5.15;;;2.50;;
50821;SDS011;36794;51.212;6.980;2023-09-12T01:15:18;5.85;;;3.15;;
50821;SDS011;36794;51.212;6.980;2023-09-12T01:17:44;8.85;;;3.00;;
50821;SDS011;36794;51.212;6.980;2023-09-12T01:20:13;5.25;;;2.67;;
50821;SDS011;36794;51.212;6.980;2023-09-12T01:28:01;4.75;;;3.15;;
50821;SDS011;36794;51.212;6.980;2023-09-12T01:30:28;6.32;;;4.35;;
50821;SDS011;36794;51.212;6.980;2023-09-12T01:32:57;7.38;;;4.00;;
50821;SDS011;36794;51.212;6.980;2023-09-12T01:35:23;8.73;;;4.00;;
50821;SDS011;36794;51.212;6.980;2023-09-12T01:37:49;7.25;;;4.22;;
50821;SDS011;36794;51.212;6.980;2023-09-12T01:40:15;9.07;;;4.60;;
50821;SDS011;36794;51.212;6.980;2023-09-12T01:42:44;6.97;;;3.80;;
50821;SDS011;36794;51.212;6.980;2023-09-12T01:45:11;7.85;;;4.65;;
50821;SDS011;36794;51.212;6.980;2023-09-12T01:47:39;10.23;;;5.25;;
50821;SDS011;36794;51.212;6.980;2023-09-12T01:50:05;9.75;;;5.07;;
50821;SDS011;36794;51.212;6.980;2023-09-12T01:52:33;9.15;;;5.00;;
50821;SDS011;36794;51.212;6.980;2023-09-12T01:54:59;8.75;;;4.93;;
50821;SDS011;36794;51.212;6.980;2023-09-12T01:57:25;9.07;;;4.90;;
50821;SDS011;36794;51.212;6.980;2023-09-12T01:59:51;9.88;;;4.50;;
50821;SDS011;36794;51.212;6.980;2023-09-12T02:02:17;6.90;;;4.15;;
50821;SDS011;36794;51.212;6.980;2023-09-12T02:04:50;8.82;;;4.43;;
50821;SDS011;36794;51.212;6.980;2023-09-12T02:07:17;6.57;;;4.67;;
50821;SDS011;36794;51.212;6.980;2023-09-12T02:09:42;6.65;;;3.80;;
50821;SDS011;36794;51.212;6.980;2023-09-12T02:12:08;7.40;;;4.43;;
50821;SDS011;36794;51.212;6.980;2023-09-12T02:14:34;7.97;;;4.57;;
50821;SDS011;36794;51.212;6.980;2023-09-12T02:17:00;7.25;;;4.93;;
50821;SDS011;36794;51.212;6.980;2023-09-12T02:19:26;8.73;;;5.25;;
50821;SDS011;36794;51.212;6.980;2023-09-12T02:21:52;8.77;;;4.65;;
50821;SDS011;36794;51.212;6.980;2023-09-12T02:24:18;11.80;;;5.57;;
50821;SDS011;36794;51.212;6.980;2023-09-12T02:26:46;9.80;;;5.70;;
50821;SDS011;36794;51.212;6.980;2023-09-12T02:29:12;10.25;;;6.25;;
50821;SDS011;36794;51.212;6.980;2023-09-12T02:31:38;9.88;;;5.90;;
50821;SDS011;36794;51.212;6.980;2023-09-12T02:34:04;9.43;;;5.97;;
50821;SDS011;36794;51.212;6.980;2023-09-12T02:36:30;11.27;;;7.22;;
50821;SDS011;36794;51.212;6.980;2023-09-12T02:38:56;8.82;;;6.68;;
50821;SDS011;36794;51.212;6.980;2023-09-12T02:41:22;11.85;;;7.03;;
50821;SDS011;36794;51.212;6.980;2023-09-12T02:43:48;12.23;;;7.47;;
50821;SDS011;36794;51.212;6.980;2023-09-12T02:46:14;12.50;;;7.97;;
50821;SDS011;36794;51.212;6.980;2023-09-12T02:48:46;16.90;;;7.35;;
50821;SDS011;36794;51.212;6.980;2023-09-12T02:51:12;12.55;;;7.90;;
50821;SDS011;36794;51.212;6.980;2023-09-12T02:53:38;15.05;;;8.48;;
50821;SDS011;36794;51.212;6.980;2023-09-12T02:56:04;17.85;;;9.20;;
50821;SDS011;36794;51.212;6.980;2023-09-12T02:58:30;15.18;;;9.32;;
50821;SDS011;36794;51.212;6.980;2023-09-12T03:00:56;15.63;;;9.13;;
50821;SDS011;36794;51.212;6.980;2023-09-12T03:03:22;15.55;;;9.05;;
50821;SDS011;36794;51.212;6.980;2023-09-12T03:05:48;15.43;;;9.13;;
50821;SDS011;36794;51.212;6.980;2023-09-12T03:08:22;15.63;;;10.40;;
50821;SDS011;36794;51.212;6.980;2023-09-12T03:10:52;15.55;;;9.30;;
50821;SDS011;36794;51.212;6.980;2023-09-12T03:13:19;16.27;;;10.43;;
50821;SDS011;36794;51.212;6.980;2023-09-12T03:15:45;14.25;;;9.63;;
50821;SDS011;36794;51.212;6.980;2023-09-12T03:18:11;14.60;;;9.70;;
50821;SDS011;36794;51.212;6.980;2023-09-12T03:20:37;12.98;;;9.90;;
50821;SDS011;36794;51.212;6.980;2023-09-12T03:23:04;14.50;;;9.55;;
50821;SDS011;36794;51.212;6.980;2023-09-12T03:25:34;14.73;;;9.55;;
50821;SDS011;36794;51.212;6.980;2023-09-12T03:28:00;15.80;;;10.60;;
50821;SDS011;36794;51.212;6.980;2023-09-12T03:30:27;14.45;;;10.05;;
50821;SDS011;36794;51.212;6.980;2023-09-12T03:32:53;14.00;;;9.27;;
50821;SDS011;36794;51.212;6.980;2023-09-12T03:35:19;13.10;;;8.85;;
50821;SDS011;36794;51.212;6.980;2023-09-12T03:37:45;14.75;;;9.00;;
50821;SDS011;36794;51.212;6.980;2023-09-12T03:40:11;15.43;;;8.75;;
50821;SDS011;36794;51.212;6.980;2023-09-12T03:42:37;16.02;;;8.40;;
50821;SDS011;36794;51.212;6.980;2023-09-12T03:45:03;11.45;;;7.60;;
50821;SDS011;36794;51.212;6.980;2023-09-12T03:47:29;15.13;;;7.75;;
50821;SDS011;36794;51.212;6.980;2023-09-12T03:49:55;11.65;;;7.80;;
50821;SDS011;36794;51.212;6.980;2023-09-12T03:52:21;14.43;;;8.30;;
50821;SDS011;36794;51.212;6.980;2023-09-12T03:54:47;13.95;;;7.72;;
50821;SDS011;36794;51.212;6.980;2023-09-12T03:57:13;12.27;;;8.02;;
50821;SDS011;36794;51.212;6.980;2023-09-12T03:59:39;10.90;;;7.88;;
50821;SDS011;36794;51.212;6.980;2023-09-12T04:02:05;12.30;;;7.53;;
50821;SDS011;36794;51.212;6.980;2023-09-12T04:04:31;13.55;;;8.10;;
50821;SDS011;36794;51.212;6.980;2023-09-12T04:06:57;17.48;;;8.20;;
50821;SDS011;36794;51.212;6.980;2023-09-12T04:09:23;11.57;;;6.82;;
50821;SDS011;36794;51.212;6.980;2023-09-12T04:11:49;11.57;;;7.25;;
50821;SDS011;36794;51.212;6.980;2023-09-12T04:14:15;12.30;;;6.95;;
50821;SDS011;36794;51.212;6.980;2023-09-12T04:16:41;11.68;;;7.53;;
50821;SDS011;36794;51.212;6.980;2023-09-12T04:19:07;12.98;;;6.65;;
50821;SDS011;36794;51.212;6.980;2023-09-12T04:21:33;10.95;;;7.07;;
50821;SDS011;36794;51.212;6.980;2023-09-12T04:23:59;15.73;;;6.80;;
50821;SDS011;36794;51.212;6.980;2023-09-12T04:26:25;10.75;;;6.55;;
50821;SDS011;36794;51.212;6.980;2023-09-12T04:28:51;9.90;;;6.57;;
50821;SDS011;36794;51.212;6.980;2023-09-12T04:31:17;9.85;;;5.97;;
50821;SDS011;36794;51.212;6.980;2023-09-12T04:33:42;15.15;;;6.70;;
50821;SDS011;36794;51.212;6.980;2023-09-12T04:36:08;12.93;;;6.30;;
50821;SDS011;36794;51.212;6.980;2023-09-12T04:38:35;10.02;;;6.43;;
50821;SDS011;36794;51.212;6.980;2023-09-12T04:41:02;8.60;;;6.32;;
50821;SDS011;36794;51.212;6.980;2023-09-12T04:43:31;11.77;;;6.03;;
50821;SDS011;36794;51.212;6.980;2023-09-12T04:45:57;8.20;;;5.75;;
50821;SDS011;36794;51.212;6.980;2023-09-12T04:48:23;13.38;;;6.32;;
50821;SDS011;36794;51.212;6.980;2023-09-12T04:50:49;11.10;;;5.72;;
50821;SDS011;36794;51.212;6.980;2023-09-12T04:53:15;13.38;;;5.35;;
50821;SDS011;36794;51.212;6.980;2023-09-12T04:55:41;10.43;;;5.35;;
50821;SDS011;36794;51.212;6.980;2023-09-12T04:58:07;8.95;;;5.28;;
50821;SDS011;36794;51.212;6.980;2023-09-12T05:00:33;12.55;;;5.10;;
50821;SDS011;36794;51.212;6.980;2023-09-12T05:03:00;11.20;;;5.63;;
50821;SDS011;36794;51.212;6.980;2023-09-12T05:05:26;9.48;;;6.15;;
50821;SDS011;36794;51.212;6.980;2023-09-12T05:07:52;9.18;;;6.22;;
50821;SDS011;36794;51.212;6.980;2023-09-12T05:10:18;14.63;;;6.88;;
50821;SDS011;36794;51.212;6.980;2023-09-12T05:12:44;15.32;;;6.45;;
50821;SDS011;36794;51.212;6.980;2023-09-12T05:15:10;10.02;;;6.35;;
50821;SDS011;36794;51.212;6.980;2023-09-12T05:17:36;11.02;;;6.63;;
50821;SDS011;36794;51.212;6.980;2023-09-12T05:20:06;13.05;;;7.20;;
50821;SDS011;36794;51.212;6.980;2023-09-12T05:22:32;13.57;;;6.80;;
50821;SDS011;36794;51.212;6.980;2023-09-12T05:24:58;9.90;;;6.75;;
50821;SDS011;36794;51.212;6.980;2023-09-12T05:27:24;14.00;;;7.53;;
50821;SDS011;36794;51.212;6.980;2023-09-12T05:29:50;12.60;;;7.47;;
50821;SDS011;36794;51.212;6.980;2023-09-12T05:32:15;16.08;;;7.20;;
50821;SDS011;36794;51.212;6.980;2023-09-12T05:34:41;11.98;;;7.30;;
50821;SDS011;36794;51.212;6.980;2023-09-12T05:37:07;9.27;;;6.50;;
50821;SDS011;36794;51.212;6.980;2023-09-12T05:39:33;11.85;;;7.20;;
50821;SDS011;36794;51.212;6.980;2023-09-12T05:41:59;10.75;;;7.07;;
50821;SDS011;36794;51.212;6.980;2023-09-12T05:44:25;9.10;;;6.78;;
50821;SDS011;36794;51.212;6.980;2023-09-12T05:46:51;9.15;;;6.70;;
50821;SDS011;36794;51.212;6.980;2023-09-12T05:49:17;7.50;;;6.70;;
50821;SDS011;36794;51.212;6.980;2023-09-12T05:51:43;12.55;;;6.63;;
50821;SDS011;36794;51.212;6.980;2023-09-12T05:54:09;9.82;;;6.38;;
50821;SDS011;36794;51.212;6.980;2023-09-12T05:56:38;13.65;;;7.07;;
50821;SDS011;36794;51.212;6.980;2023-09-12T05:59:04;11.65;;;6.35;;
50821;SDS011;36794;51.212;6.980;2023-09-12T06:01:30;11.40;;;6.65;;
50821;SDS011;36794;51.212;6.980;2023-09-12T06:03:56;16.70;;;6.68;;
50821;SDS011;36794;51.212;6.980;2023-09-12T06:06:22;9.02;;;5.85;;
50821;SDS011;36794;51.212;6.980;2023-09-12T06:08:48;13.52;;;6.68;;
50821;SDS011;36794;51.212;6.980;2023-09-12T06:11:14;18.45;;;10.98;;
50821;SDS011;36794;51.212;6.980;2023-09-12T06:13:40;21.33;;;16.02;;
50821;SDS011;36794;51.212;6.980;2023-09-12T06:16:06;20.77;;;14.95;;
50821;SDS011;36794;51.212;6.980;2023-09-12T06:18:35;10.40;;;8.20;;
50821;SDS011;36794;51.212;6.980;2023-09-12T06:21:01;14.45;;;8.30;;
50821;SDS011;36794;51.212;6.980;2023-09-12T06:23:29;16.45;;;11.20;;
50821;SDS011;36794;51.212;6.980;2023-09-12T06:25:55;15.73;;;11.73;;
50821;SDS011;36794;51.212;6.980;2023-09-12T06:28:28;14.40;;;10.38;;
50821;SDS011;36794;51.212;6.980;2023-09-12T06:30:54;12.20;;;8.53;;
50821;SDS011;36794;51.212;6.980;2023-09-12T06:33:21;16.25;;;9.32;;
50821;SDS011;36794;51.212;6.980;2023-09-12T06:35:51;15.38;;;9.05;;
50821;SDS011;36794;51.212;6.980;2023-09-12T06:38:18;14.93;;;9.70;;
50821;SDS011;36794;51.212;6.980;2023-09-12T06:40:44;11.05;;;9.07;;
50821;SDS011;36794;51.212;6.980;2023-09-12T06:43:11;14.30;;;10.13;;
50821;SDS011;36794;51.212;6.980;2023-09-12T06:45:37;14.43;;;11.35;;
50821;SDS011;36794;51.212;6.980;2023-09-12T06:48:03;14.95;;;10.60;;
50821;SDS011;36794;51.212;6.980;2023-09-12T06:50:30;16.60;;;10.85;;
50821;SDS011;36794;51.212;6.980;2023-09-12T06:52:55;13.00;;;10.73;;
50821;SDS011;36794;51.212;6.980;2023-09-12T06:55:21;12.45;;;8.80;;
50821;SDS011;36794;51.212;6.980;2023-09-12T06:57:47;11.40;;;8.75;;
50821;SDS011;36794;51.212;6.980;2023-09-12T07:00:13;11.25;;;8.52;;
50821;SDS011;36794;51.212;6.980;2023-09-12T07:02:39;12.13;;;9.18;;
50821;SDS011;36794;51.212;6.980;2023-09-12T07:05:06;14.35;;;9.02;;
50821;SDS011;36794;51.212;6.980;2023-09-12T07:07:32;14.82;;;8.57;;
50821;SDS011;36794;51.212;6.980;2023-09-12T07:09:58;9.65;;;8.25;;
50821;SDS011;36794;51.212;6.980;2023-09-12T07:12:24;12.20;;;7.90;;
50821;SDS011;36794;51.212;6.980;2023-09-12T07:14:50;10.98;;;7.95;;
50821;SDS011;36794;51.212;6.980;2023-09-12T07:17:16;10.07;;;8.48;;
50821;SDS011;36794;51.212;6.980;2023-09-12T07:19:43;12.48;;;8.80;;
50821;SDS011;36794;51.212;6.980;2023-09-12T07:22:09;10.95;;;8.55;;
50821;SDS011;36794;51.212;6.980;2023-09-12T07:24:35;13.15;;;9.27;;
50821;SDS011;36794;51.212;6.980;2023-09-12T07:27:01;13.70;;;9.45;;
50821;SDS011;36794;51.212;6.980;2023-09-12T07:29:27;11.88;;;9.10;;
50821;SDS011;36794;51.212;6.980;2023-09-12T07:31:53;12.38;;;9.57;;
50821;SDS011;36794;51.212;6.980;2023-09-12T07:34:21;14.25;;;9.23;;
50821;SDS011;36794;51.212;6.980;2023-09-12T07:36:48;17.70;;;9.30;;
50821;SDS011;36794;51.212;6.980;2023-09-12T07:39:14;12.00;;;9.32;;
50821;SDS011;36794;51.212;6.980;2023-09-12T07:41:40;13.45;;;9.60;;
50821;SDS011;36794;51.212;6.980;2023-09-12T07:44:05;12.07;;;8.60;;
50821;SDS011;36794;51.212;6.980;2023-09-12T07:46:35;12.20;;;9.82;;
50821;SDS011;36794;51.212;6.980;2023-09-12T07:49:01;12.50;;;9.13;;
50821;SDS011;36794;51.212;6.980;2023-09-12T07:51:27;10.98;;;8.63;;
50821;SDS011;36794;51.212;6.980;2023-09-12T07:53:53;14.55;;;8.98;;
50821;SDS011;36794;51.212;6.980;2023-09-12T07:56:19;13.13;;;7.68;;
50821;SDS011;36794;51.212;6.980;2023-09-12T07:58:45;9.18;;;7.30;;
50821;SDS011;36794;51.212;6.980;2023-09-12T08:01:11;10.60;;;7.50;;
50821;SDS011;36794;51.212;6.980;2023-09-12T08:03:38;12.55;;;7.95;;
50821;SDS011;36794;51.212;6.980;2023-09-12T08:06:04;11.18;;;7.45;;
50821;SDS011;36794;51.212;6.980;2023-09-12T08:08:31;8.88;;;7.05;;
50821;SDS011;36794;51.212;6.980;2023-09-12T08:10:57;11.20;;;7.03;;
50821;SDS011;36794;51.212;6.980;2023-09-12T08:13:25;8.60;;;6.63;;
50821;SDS011;36794;51.212;6.980;2023-09-12T08:15:51;11.60;;;6.93;;
50821;SDS011;36794;51.212;6.980;2023-09-12T08:18:17;17.83;;;7.50;;
50821;SDS011;36794;51.212;6.980;2023-09-12T08:20:43;7.55;;;5.80;;
50821;SDS011;36794;51.212;6.980;2023-09-12T08:23:09;12.75;;;5.97;;
50821;SDS011;36794;51.212;6.980;2023-09-12T08:25:35;7.95;;;5.75;;
50821;SDS011;36794;51.212;6.980;2023-09-12T08:28:01;12.63;;;5.25;;
50821;SDS011;36794;51.212;6.980;2023-09-12T08:30:27;7.07;;;4.90;;
50821;SDS011;36794;51.212;6.980;2023-09-12T08:32:57;9.93;;;4.82;;
50821;SDS011;36794;51.212;6.980;2023-09-12T08:35:23;6.55;;;4.85;;
50821;SDS011;36794;51.212;6.980;2023-09-12T08:37:51;6.63;;;4.57;;
50821;SDS011;36794;51.212;6.980;2023-09-12T08:40:17;9.02;;;4.85;;
50821;SDS011;36794;51.212;6.980;2023-09-12T08:42:44;8.13;;;4.75;;
50821;SDS011;36794;51.212;6.980;2023-09-12T08:45:14;7.78;;;4.40;;
50821;SDS011;36794;51.212;6.980;2023-09-12T08:47:41;8.68;;;4.55;;
50821;SDS011;36794;51.212;6.980;2023-09-12T08:50:09;6.00;;;4.45;;
50821;SDS011;36794;51.212;6.980;2023-09-12T08:52:36;5.25;;;4.22;;
50821;SDS011;36794;51.212;6.980;2023-09-12T08:55:02;7.30;;;4.53;;
50821;SDS011;36794;51.212;6.980;2023-09-12T08:57:29;5.18;;;4.15;;
50821;SDS011;36794;51.212;6.980;2023-09-12T08:59:55;5.85;;;4.00;;
50821;SDS011;36794;51.212;6.980;2023-09-12T09:02:22;6.35;;;4.18;;
50821;SDS011;36794;51.212;6.980;2023-09-12T09:04:48;5.97;;;4.10;;
50821;SDS011;36794;51.212;6.980;2023-09-12T09:07:15;10.07;;;4.00;;
50821;SDS011;36794;51.212;6.980;2023-09-12T09:09:42;6.78;;;4.35;;
50821;SDS011;36794;51.212;6.980;2023-09-12T09:12:08;5.82;;;4.38;;
50821;SDS011;36794;51.212;6.980;2023-09-12T09:14:35;6.65;;;4.20;;
50821;SDS011;36794;51.212;6.980;2023-09-12T09:17:01;8.25;;;4.32;;
50821;SDS011;36794;51.212;6.980;2023-09-12T09:19:39;5.85;;;4.13;;
50821;SDS011;36794;51.212;6.980;2023-09-12T09:22:06;6.95;;;4.05;;
50821;SDS011;36794;51.212;6.980;2023-09-12T09:24:32;7.35;;;4.53;;
50821;SDS011;36794;51.212;6.980;2023-09-12T09:26:58;7.18;;;4.28;;
50821;SDS011;36794;51.212;6.980;2023-09-12T09:29:26;7.13;;;4.20;;
50821;SDS011;36794;51.212;6.980;2023-09-12T09:31:56;7.70;;;4.55;;
50821;SDS011;36794;51.212;6.980;2023-09-12T09:34:22;6.45;;;3.70;;
50821;SDS011;36794;51.212;6.980;2023-09-12T09:36:52;5.15;;;3.80;;
50821;SDS011;36794;51.212;6.980;2023-09-12T09:39:19;7.85;;;3.97;;
50821;SDS011;36794;51.212;6.980;2023-09-12T09:41:49;5.80;;;3.72;;
50821;SDS011;36794;51.212;6.980;2023-09-12T09:44:15;7.78;;;3.75;;
50821;SDS011;36794;51.212;6.980;2023-09-12T09:46:44;8.77;;;4.32;;
50821;SDS011;36794;51.212;6.980;2023-09-12T09:49:10;5.47;;;3.95;;
50821;SDS011;36794;51.212;6.980;2023-09-12T09:51:40;7.20;;;3.60;;
50821;SDS011;36794;51.212;6.980;2023-09-12T09:54:10;10.18;;;4.05;;
50821;SDS011;36794;51.212;6.980;2023-09-12T09:56:49;6.47;;;4.32;;
50821;SDS011;36794;51.212;6.980;2023-09-12T09:59:16;6.57;;;4.10;;
50821;SDS011;36794;51.212;6.980;2023-09-12T10:01:43;5.63;;;3.63;;
50821;SDS011;36794;51.212;6.980;2023-09-12T10:04:10;7.38;;;3.92;;
50821;SDS011;36794;51.212;6.980;2023-09-12T10:06:36;8.00;;;4.07;;
50821;SDS011;36794;51.212;6.980;2023-09-12T10:09:05;8.00;;;3.90;;
50821;SDS011;36794;51.212;6.980;2023-09-12T10:11:31;7.75;;;4.03;;
50821;SDS011;36794;51.212;6.980;2023-09-12T10:13:59;3.42;;;3.03;;
50821;SDS011;36794;51.212;6.980;2023-09-12T10:16:30;6.50;;;3.90;;
50821;SDS011;36794;51.212;6.980;2023-09-12T10:18:58;9.35;;;4.22;;
50821;SDS011;36794;51.212;6.980;2023-09-12T10:21:29;5.30;;;3.97;;
50821;SDS011;36794;51.212;6.980;2023-09-12T10:23:56;7.13;;;4.20;;
50821;SDS011;36794;51.212;6.980;2023-09-12T10:26:23;5.78;;;3.60;;
50821;SDS011;36794;51.212;6.980;2023-09-12T10:28:49;9.45;;;4.45;;
50821;SDS011;36794;51.212;6.980;2023-09-12T10:31:16;9.77;;;4.53;;
50821;SDS011;36794;51.212;6.980;2023-09-12T10:33:43;6.47;;;3.95;;
50821;SDS011;36794;51.212;6.980;2023-09-12T10:36:09;10.30;;;5.18;;
50821;SDS011;36794;51.212;6.980;2023-09-12T10:38:36;8.13;;;4.80;;
50821;SDS011;36794;51.212;6.980;2023-09-12T10:41:04;9.00;;;4.95;;
50821;SDS011;36794;51.212;6.980;2023-09-12T10:43:30;6.20;;;3.80;;
50821;SDS011;36794;51.212;6.980;2023-09-12T10:46:00;7.65;;;4.60;;
50821;SDS011;36794;51.212;6.980;2023-09-12T10:48:28;8.07;;;4.72;;
50821;SDS011;36794;51.212;6.980;2023-09-12T10:50:56;9.40;;;5.50;;
50821;SDS011;36794;51.212;6.980;2023-09-12T10:53:23;7.15;;;4.53;;
50821;SDS011;36794;51.212;6.980;2023-09-12T11:03:55;5.00;;;4.15;;
50821;SDS011;36794;51.212;6.980;2023-09-12T11:06:21;5.38;;;3.75;;
50821;SDS011;36794;51.212;6.980;2023-09-12T11:09:21;6.32;;;4.10;;
50821;SDS011;36794;51.212;6.980;2023-09-12T11:11:47;9.23;;;3.90;;
50821;SDS011;36794;51.212;6.980;2023-09-12T11:14:14;5.15;;;3.50;;
50821;SDS011;36794;51.212;6.980;2023-09-12T11:16:41;6.10;;;3.65;;
50821;SDS011;36794;51.212;6.980;2023-09-12T11:19:11;7.72;;;4.05;;
50821;SDS011;36794;51.212;6.980;2023-09-12T11:21:44;6.65;;;4.18;;
50821;SDS011;36794;51.212;6.980;2023-09-12T11:24:10;7.78;;;3.33;;
50821;SDS011;36794;51.212;6.980;2023-09-12T11:26:58;9.27;;;3.75;;
50821;SDS011;36794;51.212;6.980;2023-09-12T11:29:27;9.30;;;4.20;;
50821;SDS011;36794;51.212;6.980;2023-09-12T11:31:58;5.60;;;3.75;;
50821;SDS011;36794;51.212;6.980;2023-09-12T11:34:27;7.22;;;3.58;;
50821;SDS011;36794;51.212;6.980;2023-09-12T11:36:57;5.45;;;3.20;;
50821;SDS011;36794;51.212;6.980;2023-09-12T11:39:25;6.40;;;3.28;;
50821;SDS011;36794;51.212;6.980;2023-09-12T11:41:53;5.57;;;3.38;;
50821;SDS011;36794;51.212;6.980;2023-09-12T11:44:20;5.68;;;3.33;;
50821;SDS011;36794;51.212;6.980;2023-09-12T11:46:47;5.60;;;3.40;;
50821;SDS011;36794;51.212;6.980;2023-09-12T11:49:17;7.35;;;3.75;;
50821;SDS011;36794;51.212;6.980;2023-09-12T11:51:47;5.03;;;3.00;;
50821;SDS011;36794;51.212;6.980;2023-09-12T11:54:17;6.13;;;3.22;;
50821;SDS011;36794;51.212;6.980;2023-09-12T11:56:44;4.50;;;3.15;;
50821;SDS011;36794;51.212;6.980;2023-09-12T11:59:10;6.47;;;3.08;;
50821;SDS011;36794;51.212;6.980;2023-09-12T12:01:36;6.70;;;3.25;;
50821;SDS011;36794;51.212;6.980;2023-09-12T12:04:02;5.93;;;3.20;;
50821;SDS011;36794;51.212;6.980;2023-09-12T12:06:29;5.50;;;3.10;;
50821;SDS011;36794;51.212;6.980;2023-09-12T12:08:55;5.40;;;3.17;;
50821;SDS011;36794;51.212;6.980;2023-09-12T12:11:21;6.55;;;3.22;;
50821;SDS011;36794;51.212;6.980;2023-09-12T12:13:47;6.65;;;3.58;;
50821;SDS011;36794;51.212;6.980;2023-09-12T12:16:15;5.35;;;3.17;;
50821;SDS011;36794;51.212;6.980;2023-09-12T12:18:41;4.43;;;3.45;;
50821;SDS011;36794;51.212;6.980;2023-09-12T12:21:07;5.50;;;3.80;;
50821;SDS011;36794;51.212;6.980;2023-09-12T12:23:34;9.85;;;3.45;;
50821;SDS011;36794;51.212;6.980;2023-09-12T12:26:05;5.95;;;3.30;;
50821;SDS011;36794;51.212;6.980;2023-09-12T12:28:31;7.68;;;4.03;;
50821;SDS011;36794;51.212;6.980;2023-09-12T12:30:57;4.40;;;3.00;;
50821;SDS011;36794;51.212;6.980;2023-09-12T12:33:24;4.45;;;2.80;;
50821;SDS011;36794;51.212;6.980;2023-09-12T12:36:04;7.32;;;3.65;;
50821;SDS011;36794;51.212;6.980;2023-09-12T12:38:36;5.90;;;3.33;;
50821;SDS011;36794;51.212;6.980;2023-09-12T12:41:03;5.90;;;3.15;;
50821;SDS011;36794;51.212;6.980;2023-09-12T12:43:29;3.83;;;3.28;;
50821;SDS011;36794;51.212;6.980;2023-09-12T12:45:56;7.50;;;3.28;;
50821;SDS011;36794;51.212;6.980;2023-09-12T12:48:32;5.82;;;3.75;;
50821;SDS011;36794;51.212;6.980;2023-09-12T12:51:01;7.03;;;3.72;;
50821;SDS011;36794;51.212;6.980;2023-09-12T12:53:42;5.72;;;3.22;;
50821;SDS011;36794;51.212;6.980;2023-09-12T12:56:08;7.20;;;3.42;;
50821;SDS011;36794;51.212;6.980;2023-09-12T12:58:36;6.72;;;3.88;;
50821;SDS011;36794;51.212;6.980;2023-09-12T13:01:05;7.47;;;3.80;;
50821;SDS011;36794;51.212;6.980;2023-09-12T13:03:31;5.05;;;3.17;;
50821;SDS011;36794;51.212;6.980;2023-09-12T13:05:57;6.13;;;3.80;;
50821;SDS011;36794;51.212;6.980;2023-09-12T13:08:24;6.78;;;3.85;;
50821;SDS011;36794;51.212;6.980;2023-09-12T13:10:50;10.07;;;3.78;;
50821;SDS011;36794;51.212;6.980;2023-09-12T13:13:16;5.47;;;3.13;;
50821;SDS011;36794;51.212;6.980;2023-09-12T13:15:42;8.63;;;3.60;;
50821;SDS011;36794;51.212;6.980;2023-09-12T13:18:17;6.90;;;3.53;;
50821;SDS011;36794;51.212;6.980;2023-09-12T13:20:43;4.88;;;3.83;;
50821;SDS011;36794;51.212;6.980;2023-09-12T13:23:09;6.50;;;4.00;;
50821;SDS011;36794;51.212;6.980;2023-09-12T13:25:52;7.30;;;3.83;;
50821;SDS011;36794;51.212;6.980;2023-09-12T13:28:25;8.40;;;3.22;;
50821;SDS011;36794;51.212;6.980;2023-09-12T13:30:54;6.80;;;3.65;;
50821;SDS011;36794;51.212;6.980;2023-09-12T13:35:58;5.45;;;3.05;;
50821;SDS011;36794;51.212;6.980;2023-09-12T13:38:24;6.35;;;3.10;;
50821;SDS011;36794;51.212;6.980;2023-09-12T13:40:50;8.82;;;3.30;;
50821;SDS011;36794;51.212;6.980;2023-09-12T13:43:19;4.32;;;2.72;;
50821;SDS011;36794;51.212;6.980;2023-09-12T13:45:48;8.45;;;4.28;;
50821;SDS011;36794;51.212;6.980;2023-09-12T13:48:14;4.97;;;3.58;;
50821;SDS011;36794;51.212;6.980;2023-09-12T13:50:40;6.53;;;3.10;;
50821;SDS011;36794;51.212;6.980;2023-09-12T13:53:08;8.23;;;3.22;;
50821;SDS011;36794;51.212;6.980;2023-09-12T13:55:34;5.78;;;3.15;;
50821;SDS011;36794;51.212;6.980;2023-09-12T13:58:03;6.40;;;3.40;;
50821;SDS011;36794;51.212;6.980;2023-09-12T14:00:30;6.82;;;3.03;;
50821;SDS011;36794;51.212;6.980;2023-09-12T14:02:56;8.85;;;3.58;;
50821;SDS011;36794;51.212;6.980;2023-09-12T14:05:22;7.85;;;4.28;;
50821;SDS011;36794;51.212;6.980;2023-09-12T14:07:49;7.90;;;3.33;;
50821;SDS011;36794;51.212;6.980;2023-09-12T14:13:18;5.60;;;3.63;;
50821;SDS011;36794;51.212;6.980;2023-09-12T14:18:42;7.70;;;3.55;;
50821;SDS011;36794;51.212;6.980;2023-09-12T14:21:08;6.72;;;3.75;;
50821;SDS011;36794;51.212;6.980;2023-09-12T14:23:34;5.15;;;3.20;;
50821;SDS011;36794;51.212;6.980;2023-09-12T14:26:00;6.80;;;3.60;;
50821;SDS011;36794;51.212;6.980;2023-09-12T14:28:26;6.95;;;3.35;;
50821;SDS011;36794;51.212;6.980;2023-09-12T14:30:53;5.35;;;3.45;;
50821;SDS011;36794;51.212;6.980;2023-09-12T14:33:20;7.60;;;3.35;;
50821;SDS011;36794;51.212;6.980;2023-09-12T14:35:46;5.25;;;3.35;;
50821;SDS011;36794;51.212;6.980;2023-09-12T14:38:12;5.72;;;3.20;;
50821;SDS011;36794;51.212;6.980;2023-09-12T14:40:38;7.30;;;3.30;;
50821;SDS011;36794;51.212;6.980;2023-09-12T14:43:05;4.63;;;3.08;;
50821;SDS011;36794;51.212;6.980;2023-09-12T14:45:32;7.32;;;3.00;;
50821;SDS011;36794;51.212;6.980;2023-09-12T14:47:58;6.60;;;3.22;;
50821;SDS011;36794;51.212;6.980;2023-09-12T14:50:24;5.53;;;3.40;;
50821;SDS011;36794;51.212;6.980;2023-09-12T14:52:54;6.10;;;3.30;;
50821;SDS011;36794;51.212;6.980;2023-09-12T14:55:20;6.28;;;3.92;;
50821;SDS011;36794;51.212;6.980;2023-09-12T14:57:45;4.95;;;3.25;;
50821;SDS011;36794;51.212;6.980;2023-09-12T15:00:11;6.13;;;3.20;;
50821;SDS011;36794;51.212;6.980;2023-09-12T15:02:37;4.22;;;3.03;;
50821;SDS011;36794;51.212;6.980;2023-09-12T15:05:04;4.00;;;3.28;;